Apalachicola, FL

7:30 AM EDT on August 25, 2016 (GMT -0400)
Apalachicola Municipal | | Change Station

Elev 20 ft 29.73 °N, 85.03 °W | Updated 37 minutes ago

Clear
Clear
74 °F
Feels Like 74 °F
N
7
Wind Variable Wind from NE

Today
High -- | Low -- °F
--% Chance of Precip.
Yesterday
High -- | Low -- °F
Precip. -- in
Pressure 30.09 in
Visibility 10.0 miles
Clouds Clear
Dew Point 74 °F
Humidity 100%
Rainfall 0.00 in
Snow Depth Not available.
7:13 AM 8:09 PM
Waning Gibbous, 46% visible
METAR KAAF 251053Z AUTO 05006KT 10SM CLR 23/23 A3009 RMK AO2 SLP188 T02330233
Pressure 30.09 in
Visibility 10.0 miles
Clouds Clear
Dew Point 74 °F
Humidity 100%
Rainfall 0.00 in
Snow Depth Not available.
7:13 AM 8:09 PM
Waning Gibbous, 46% visible
METAR KAAF 251053Z AUTO 05006KT 10SM CLR 23/23 A3009 RMK AO2 SLP188 T02330233

10-Day Weather Forecast

Almanac

Astronomy

Aug. 25, 2016 Rise Set
Actual Time
Civil Twilight
Nautical Twilight
Astronomical Twilight
Moon
Length of Visible Light
Length of Day
Tomorrow will be .
, % of the Moon is Illuminated

Today's Extremes

State Highs State Lows

Community

WunderPhotos

Upload Photos

1,934,822 photos uploaded!

WunderBlog® & News

Nearby

Air Quality

  Air Quality AQ Index Pollutant
Not available.

Snow Depth

Station Depth Elevation

Earthquake Activity

City Distance Mag. Time & Date
Minimum magnitude displayed is 2.5.

Coastal Water Temperatures

Place Temperature

Stations

Nearby Weather Stations

Station Location Temp. Windchill Dew Point Humidity Wind Precip. Elev Updated Type
                   

Watches & Warnings

There are currently no watches in effect.